OMY weather

Preah Vinhear Airport
Tbeng Meanchey, Preah Vihear, Cambodia

Public forecast

Using degrees Celsius for public forecast. Weather courtesy of forecast.io.

METAR (pilot weather report)

Closest report is Siem Reap International Airport, 70.8 nm (131.1 km) WSW. Retrieved 2019/02/19 15:30 UTC (3 minutes ago):

VDSR 191530Z 08002KT 9000 FEW017 28/19 Q1012

TAF (pilot weather forecast)

Closest forecast is Siem Reap International Airport, 70.8 nm (131.1 km) WSW. Retrieved 2019/02/19 12:00 UTC (4 hours ago):

TAF VDSR 191100Z 1912/2006 12006KT 9999 SCT017